Terminal Aerodrome Forecast
Issued by NWS Sioux Falls, SD

Home | Current Version | Previous Version | Graphics & Text | Print | Product List | Glossary On
Versions: 1 2 3 4 5 6 7 8 9 10 11 12 13 14 15 16 17
000
FTUS43 KFSD 300305 AAA
TAFHON
TAF AMD
KHON 300305Z 3003/3024 34014KT P6SM SCT035 BKN200
     FM300600 34012KT P6SM BKN035
     FM300800 35008KT P6SM OVC020
     FM301530 VRB04KT P6SM BKN025
     FM301700 VRB04KT P6SM SCT030
     FM302000 15010KT P6SM SCT040=

USA.gov is the U.S. government's official web portal to all federal, state and local government web resources and services.